createdAt,value
2022-10-22T00:00:00.000Z,73.87
2022-10-22T00:15:00.000Z,76.18
2022-10-22T00:30:00.000Z,77.5
2022-10-22T00:45:00.000Z,77.84
2022-10-22T01:00:00.000Z,79.06
2022-10-22T01:15:00.000Z,79.34
2022-10-22T01:30:00.000Z,79.73
2022-10-22T01:45:00.000Z,79.37
2022-10-22T02:00:00.000Z,81.14
2022-10-22T02:15:00.000Z,81.83
2022-10-22T02:30:00.000Z,81.54
2022-10-22T02:45:00.000Z,81.43
2022-10-22T03:00:00.000Z,80.78
2022-10-22T03:15:00.000Z,80.66
2022-10-22T03:30:00.000Z,80.91
2022-10-22T03:45:00.000Z,83.54
2022-10-22T04:00:00.000Z,85.75
2022-10-22T04:15:00.000Z,85.69
2022-10-22T04:30:00.000Z,85.45
2022-10-22T04:45:00.000Z,85.25
2022-10-22T05:00:00.000Z,85.17
2022-10-22T05:15:00.000Z,85.02
2022-10-22T05:30:00.000Z,84.94
2022-10-22T05:45:00.000Z,84.64
2022-10-22T06:00:00.000Z,84.46
2022-10-22T06:15:00.000Z,84.43
2022-10-22T06:30:00.000Z,84.18
2022-10-22T06:45:00.000Z,84.17
2022-10-22T07:00:00.000Z,84.11
2022-10-22T07:15:00.000Z,84.07
2022-10-22T07:30:00.000Z,83.93
2022-10-22T07:45:00.000Z,83.68
2022-10-22T08:00:00.000Z,83.23
2022-10-22T08:15:00.000Z,82.83
2022-10-22T08:30:00.000Z,82.6
2022-10-22T08:45:00.000Z,82.21
2022-10-22T09:00:00.000Z,81.96
2022-10-22T09:15:00.000Z,81.8
2022-10-22T09:30:00.000Z,81.51
2022-10-22T09:45:00.000Z,81.38
2022-10-22T10:00:00.000Z,81.06
2022-10-22T10:15:00.000Z,80.69
2022-10-22T10:30:00.000Z,80.28
2022-10-22T10:45:00.000Z,79.76
2022-10-22T11:00:00.000Z,79.78
2022-10-22T11:15:00.000Z,79.78
2022-10-22T11:30:00.000Z,79.67
2022-10-22T11:45:00.000Z,79.48
2022-10-22T12:00:00.000Z,79.65
2022-10-22T12:15:00.000Z,79.36
2022-10-22T12:30:00.000Z,79.14
2022-10-22T12:45:00.000Z,78.31
2022-10-22T13:00:00.000Z,78.24
2022-10-22T13:15:00.000Z,77.54
2022-10-22T13:30:00.000Z,76.6
2022-10-22T13:45:00.000Z,75.79
2022-10-22T14:00:00.000Z,75.59
2022-10-22T14:15:00.000Z,76.01
2022-10-22T14:30:00.000Z,77.74
2022-10-22T14:45:00.000Z,75.25
2022-10-22T15:00:00.000Z,75.38
2022-10-22T15:15:00.000Z,75.7
2022-10-22T15:30:00.000Z,75.65
2022-10-22T15:45:00.000Z,77.03
2022-10-22T16:00:00.000Z,78.64
2022-10-22T16:15:00.000Z,80.26
2022-10-22T16:30:00.000Z,81.07
2022-10-22T16:45:00.000Z,81.65
2022-10-22T17:00:00.000Z,82.2
2022-10-22T17:15:00.000Z,82.36
2022-10-22T17:30:00.000Z,82.3
2022-10-22T17:45:00.000Z,82.42
2022-10-22T18:00:00.000Z,83.02
2022-10-22T18:15:00.000Z,83.45
2022-10-22T18:30:00.000Z,83.9
2022-10-22T18:45:00.000Z,83.85
2022-10-22T19:00:00.000Z,83.74
2022-10-22T19:15:00.000Z,83.49
2022-10-22T19:30:00.000Z,83.07
2022-10-22T19:45:00.000Z,83.44
2022-10-22T20:00:00.000Z,83.38
2022-10-22T20:15:00.000Z,83.42
2022-10-22T20:30:00.000Z,83.43
2022-10-22T20:45:00.000Z,83.68
2022-10-22T21:00:00.000Z,84.16
2022-10-22T21:15:00.000Z,84.54
2022-10-22T21:30:00.000Z,84.46
2022-10-22T21:45:00.000Z,83.59
2022-10-22T22:00:00.000Z,82.29
2022-10-22T22:15:00.000Z,81.93
2022-10-22T22:30:00.000Z,82.01
2022-10-22T22:45:00.000Z,81.49
2022-10-22T23:00:00.000Z,82.24
2022-10-22T23:15:00.000Z,82.46
2022-10-22T23:30:00.000Z,81.53
2022-10-22T23:45:00.000Z,81.59
